sensor_id;sensor_type;location;lat;lon;timestamp;P1;durP1;ratioP1;P2;durP2;ratioP2
7933;SDS011;4012;48.896;9.192;2024-01-30T00:02:21;10.83;;;6.97;;
7933;SDS011;4012;48.896;9.192;2024-01-30T00:04:46;16.27;;;7.10;;
7933;SDS011;4012;48.896;9.192;2024-01-30T00:07:12;12.57;;;6.83;;
7933;SDS011;4012;48.896;9.192;2024-01-30T00:09:38;11.57;;;7.00;;
7933;SDS011;4012;48.896;9.192;2024-01-30T00:12:04;10.87;;;6.20;;
7933;SDS011;4012;48.896;9.192;2024-01-30T00:14:31;13.90;;;6.87;;
7933;SDS011;4012;48.896;9.192;2024-01-30T00:16:56;8.27;;;5.87;;
7933;SDS011;4012;48.896;9.192;2024-01-30T00:19:22;13.27;;;6.03;;
7933;SDS011;4012;48.896;9.192;2024-01-30T00:21:47;12.30;;;6.73;;
7933;SDS011;4012;48.896;9.192;2024-01-30T00:24:13;10.90;;;6.73;;
7933;SDS011;4012;48.896;9.192;2024-01-30T00:26:39;8.50;;;6.60;;
7933;SDS011;4012;48.896;9.192;2024-01-30T00:29:04;11.80;;;7.10;;
7933;SDS011;4012;48.896;9.192;2024-01-30T00:31:30;11.10;;;6.90;;
7933;SDS011;4012;48.896;9.192;2024-01-30T00:33:56;13.63;;;6.77;;
7933;SDS011;4012;48.896;9.192;2024-01-30T00:36:22;14.70;;;6.97;;
7933;SDS011;4012;48.896;9.192;2024-01-30T00:38:47;11.87;;;7.47;;
7933;SDS011;4012;48.896;9.192;2024-01-30T00:41:13;12.37;;;7.33;;
7933;SDS011;4012;48.896;9.192;2024-01-30T00:43:39;12.10;;;7.13;;
7933;SDS011;4012;48.896;9.192;2024-01-30T00:46:04;11.23;;;6.93;;
7933;SDS011;4012;48.896;9.192;2024-01-30T00:48:30;13.03;;;6.87;;
7933;SDS011;4012;48.896;9.192;2024-01-30T00:50:55;13.30;;;8.20;;
7933;SDS011;4012;48.896;9.192;2024-01-30T00:53:21;10.63;;;7.97;;
7933;SDS011;4012;48.896;9.192;2024-01-30T00:55:46;14.97;;;8.33;;
7933;SDS011;4012;48.896;9.192;2024-01-30T00:58:12;15.17;;;8.00;;
7933;SDS011;4012;48.896;9.192;2024-01-30T01:00:38;16.20;;;8.87;;
7933;SDS011;4012;48.896;9.192;2024-01-30T01:03:04;14.03;;;8.63;;
7933;SDS011;4012;48.896;9.192;2024-01-30T01:05:30;14.90;;;7.93;;
7933;SDS011;4012;48.896;9.192;2024-01-30T01:07:55;18.10;;;9.00;;
7933;SDS011;4012;48.896;9.192;2024-01-30T01:10:21;19.07;;;8.37;;
7933;SDS011;4012;48.896;9.192;2024-01-30T01:12:47;13.47;;;7.87;;
7933;SDS011;4012;48.896;9.192;2024-01-30T01:15:13;14.17;;;7.73;;
7933;SDS011;4012;48.896;9.192;2024-01-30T01:17:38;13.37;;;7.80;;
7933;SDS011;4012;48.896;9.192;2024-01-30T01:20:05;15.17;;;8.20;;
7933;SDS011;4012;48.896;9.192;2024-01-30T01:22:32;15.30;;;7.60;;
7933;SDS011;4012;48.896;9.192;2024-01-30T01:24:58;18.00;;;7.70;;
7933;SDS011;4012;48.896;9.192;2024-01-30T01:27:25;15.70;;;8.43;;
7933;SDS011;4012;48.896;9.192;2024-01-30T01:29:50;12.73;;;7.43;;
7933;SDS011;4012;48.896;9.192;2024-01-30T01:32:16;11.77;;;7.47;;
7933;SDS011;4012;48.896;9.192;2024-01-30T01:34:42;13.73;;;7.60;;
7933;SDS011;4012;48.896;9.192;2024-01-30T01:37:08;12.27;;;7.43;;
7933;SDS011;4012;48.896;9.192;2024-01-30T01:39:33;13.47;;;7.10;;
7933;SDS011;4012;48.896;9.192;2024-01-30T01:41:59;12.73;;;7.67;;
7933;SDS011;4012;48.896;9.192;2024-01-30T01:44:24;10.13;;;7.37;;
7933;SDS011;4012;48.896;9.192;2024-01-30T01:46:50;12.77;;;7.60;;
7933;SDS011;4012;48.896;9.192;2024-01-30T01:49:17;10.80;;;7.83;;
7933;SDS011;4012;48.896;9.192;2024-01-30T01:51:44;14.50;;;7.87;;
7933;SDS011;4012;48.896;9.192;2024-01-30T01:54:10;9.97;;;7.13;;
7933;SDS011;4012;48.896;9.192;2024-01-30T01:56:36;11.43;;;7.47;;
7933;SDS011;4012;48.896;9.192;2024-01-30T01:59:06;15.17;;;7.90;;
7933;SDS011;4012;48.896;9.192;2024-01-30T02:01:33;15.27;;;7.80;;
7933;SDS011;4012;48.896;9.192;2024-01-30T02:04:01;14.73;;;7.50;;
7933;SDS011;4012;48.896;9.192;2024-01-30T02:06:27;12.87;;;7.70;;
7933;SDS011;4012;48.896;9.192;2024-01-30T02:08:53;12.10;;;7.63;;
7933;SDS011;4012;48.896;9.192;2024-01-30T02:11:19;10.97;;;7.80;;
7933;SDS011;4012;48.896;9.192;2024-01-30T02:13:45;12.63;;;8.00;;
7933;SDS011;4012;48.896;9.192;2024-01-30T02:16:11;12.60;;;8.43;;
7933;SDS011;4012;48.896;9.192;2024-01-30T02:18:36;11.60;;;7.87;;
7933;SDS011;4012;48.896;9.192;2024-01-30T02:21:07;10.17;;;7.67;;
7933;SDS011;4012;48.896;9.192;2024-01-30T02:23:33;13.47;;;8.07;;
7933;SDS011;4012;48.896;9.192;2024-01-30T02:25:59;11.50;;;7.93;;
7933;SDS011;4012;48.896;9.192;2024-01-30T02:28:25;12.60;;;7.50;;
7933;SDS011;4012;48.896;9.192;2024-01-30T02:30:52;10.63;;;7.37;;
7933;SDS011;4012;48.896;9.192;2024-01-30T02:33:18;10.40;;;7.57;;
7933;SDS011;4012;48.896;9.192;2024-01-30T02:35:43;9.83;;;7.00;;
7933;SDS011;4012;48.896;9.192;2024-01-30T02:38:09;11.90;;;7.80;;
7933;SDS011;4012;48.896;9.192;2024-01-30T02:40:34;11.60;;;7.63;;
7933;SDS011;4012;48.896;9.192;2024-01-30T02:43:00;11.40;;;7.57;;
7933;SDS011;4012;48.896;9.192;2024-01-30T02:45:27;9.17;;;6.87;;
7933;SDS011;4012;48.896;9.192;2024-01-30T02:47:52;13.20;;;7.37;;
7933;SDS011;4012;48.896;9.192;2024-01-30T02:50:18;14.53;;;7.03;;
7933;SDS011;4012;48.896;9.192;2024-01-30T02:52:43;13.03;;;7.27;;
7933;SDS011;4012;48.896;9.192;2024-01-30T02:55:09;12.17;;;7.57;;
7933;SDS011;4012;48.896;9.192;2024-01-30T02:57:35;12.07;;;7.37;;
7933;SDS011;4012;48.896;9.192;2024-01-30T03:00:01;11.07;;;7.00;;
7933;SDS011;4012;48.896;9.192;2024-01-30T03:02:28;14.27;;;7.07;;
7933;SDS011;4012;48.896;9.192;2024-01-30T03:04:54;11.57;;;7.50;;
7933;SDS011;4012;48.896;9.192;2024-01-30T03:07:19;9.47;;;6.87;;
7933;SDS011;4012;48.896;9.192;2024-01-30T03:09:45;11.17;;;7.03;;
7933;SDS011;4012;48.896;9.192;2024-01-30T03:12:10;10.03;;;7.70;;
7933;SDS011;4012;48.896;9.192;2024-01-30T03:14:36;11.37;;;6.80;;
7933;SDS011;4012;48.896;9.192;2024-01-30T03:17:02;9.50;;;7.10;;
7933;SDS011;4012;48.896;9.192;2024-01-30T03:19:28;10.33;;;6.37;;
7933;SDS011;4012;48.896;9.192;2024-01-30T03:21:53;8.60;;;6.40;;
7933;SDS011;4012;48.896;9.192;2024-01-30T03:24:19;11.30;;;6.83;;
7933;SDS011;4012;48.896;9.192;2024-01-30T03:26:45;9.00;;;6.27;;
7933;SDS011;4012;48.896;9.192;2024-01-30T03:29:11;9.87;;;6.50;;
7933;SDS011;4012;48.896;9.192;2024-01-30T03:31:36;10.13;;;6.93;;
7933;SDS011;4012;48.896;9.192;2024-01-30T03:34:02;12.90;;;6.60;;
7933;SDS011;4012;48.896;9.192;2024-01-30T03:36:27;10.70;;;6.37;;
7933;SDS011;4012;48.896;9.192;2024-01-30T03:38:53;10.30;;;7.10;;
7933;SDS011;4012;48.896;9.192;2024-01-30T03:41:19;9.13;;;5.67;;
7933;SDS011;4012;48.896;9.192;2024-01-30T03:43:44;11.60;;;5.73;;
7933;SDS011;4012;48.896;9.192;2024-01-30T03:46:12;8.70;;;6.10;;
7933;SDS011;4012;48.896;9.192;2024-01-30T03:48:37;8.40;;;5.80;;
7933;SDS011;4012;48.896;9.192;2024-01-30T03:51:04;10.93;;;5.93;;
7933;SDS011;4012;48.896;9.192;2024-01-30T03:53:30;12.20;;;6.87;;
7933;SDS011;4012;48.896;9.192;2024-01-30T03:55:56;9.57;;;6.70;;
7933;SDS011;4012;48.896;9.192;2024-01-30T03:58:21;8.23;;;6.10;;
7933;SDS011;4012;48.896;9.192;2024-01-30T04:00:47;9.13;;;5.73;;
7933;SDS011;4012;48.896;9.192;2024-01-30T04:03:14;10.03;;;6.57;;
7933;SDS011;4012;48.896;9.192;2024-01-30T04:05:40;10.83;;;6.70;;
7933;SDS011;4012;48.896;9.192;2024-01-30T04:08:06;9.57;;;7.20;;
7933;SDS011;4012;48.896;9.192;2024-01-30T04:10:32;9.73;;;6.50;;
7933;SDS011;4012;48.896;9.192;2024-01-30T04:12:58;9.07;;;6.60;;
7933;SDS011;4012;48.896;9.192;2024-01-30T04:15:24;12.73;;;6.60;;
7933;SDS011;4012;48.896;9.192;2024-01-30T04:17:50;8.50;;;6.40;;
7933;SDS011;4012;48.896;9.192;2024-01-30T04:20:16;8.90;;;6.57;;
7933;SDS011;4012;48.896;9.192;2024-01-30T04:22:45;10.13;;;6.33;;
7933;SDS011;4012;48.896;9.192;2024-01-30T04:25:11;9.43;;;6.47;;
7933;SDS011;4012;48.896;9.192;2024-01-30T04:27:38;12.57;;;6.93;;
7933;SDS011;4012;48.896;9.192;2024-01-30T04:30:03;9.67;;;6.67;;
7933;SDS011;4012;48.896;9.192;2024-01-30T04:32:29;9.43;;;6.67;;
7933;SDS011;4012;48.896;9.192;2024-01-30T04:34:55;11.97;;;7.03;;
7933;SDS011;4012;48.896;9.192;2024-01-30T04:37:21;11.90;;;6.83;;
7933;SDS011;4012;48.896;9.192;2024-01-30T04:39:46;11.10;;;6.13;;
7933;SDS011;4012;48.896;9.192;2024-01-30T04:42:12;9.17;;;6.17;;
7933;SDS011;4012;48.896;9.192;2024-01-30T04:44:38;9.90;;;7.10;;
7933;SDS011;4012;48.896;9.192;2024-01-30T04:47:03;9.70;;;6.63;;
7933;SDS011;4012;48.896;9.192;2024-01-30T04:49:31;9.93;;;6.50;;
7933;SDS011;4012;48.896;9.192;2024-01-30T04:51:57;8.40;;;6.83;;
7933;SDS011;4012;48.896;9.192;2024-01-30T04:54:22;10.50;;;6.73;;
7933;SDS011;4012;48.896;9.192;2024-01-30T04:56:48;12.53;;;7.57;;
7933;SDS011;4012;48.896;9.192;2024-01-30T04:59:14;9.23;;;6.37;;
7933;SDS011;4012;48.896;9.192;2024-01-30T05:01:39;9.23;;;7.00;;
7933;SDS011;4012;48.896;9.192;2024-01-30T05:04:07;11.87;;;6.80;;
7933;SDS011;4012;48.896;9.192;2024-01-30T05:06:33;15.47;;;7.60;;
7933;SDS011;4012;48.896;9.192;2024-01-30T05:08:58;9.50;;;6.87;;
7933;SDS011;4012;48.896;9.192;2024-01-30T05:11:24;10.47;;;6.63;;
7933;SDS011;4012;48.896;9.192;2024-01-30T05:13:49;8.83;;;7.10;;
7933;SDS011;4012;48.896;9.192;2024-01-30T05:16:15;11.93;;;7.17;;
7933;SDS011;4012;48.896;9.192;2024-01-30T05:18:40;11.17;;;7.20;;
7933;SDS011;4012;48.896;9.192;2024-01-30T05:21:06;10.83;;;6.03;;
7933;SDS011;4012;48.896;9.192;2024-01-30T05:23:31;8.97;;;7.07;;
7933;SDS011;4012;48.896;9.192;2024-01-30T05:25:57;12.53;;;7.20;;
7933;SDS011;4012;48.896;9.192;2024-01-30T05:28:25;8.77;;;6.90;;
7933;SDS011;4012;48.896;9.192;2024-01-30T05:30:51;9.40;;;7.37;;
7933;SDS011;4012;48.896;9.192;2024-01-30T05:33:17;8.27;;;6.53;;
7933;SDS011;4012;48.896;9.192;2024-01-30T05:35:42;10.53;;;6.77;;
7933;SDS011;4012;48.896;9.192;2024-01-30T05:38:08;9.67;;;7.40;;
7933;SDS011;4012;48.896;9.192;2024-01-30T05:40:33;9.27;;;7.13;;
7933;SDS011;4012;48.896;9.192;2024-01-30T05:42:59;9.80;;;6.63;;
7933;SDS011;4012;48.896;9.192;2024-01-30T05:45:26;9.60;;;6.10;;
7933;SDS011;4012;48.896;9.192;2024-01-30T05:47:52;9.97;;;6.63;;
7933;SDS011;4012;48.896;9.192;2024-01-30T05:50:18;13.37;;;6.97;;
7933;SDS011;4012;48.896;9.192;2024-01-30T05:52:44;7.30;;;6.07;;
7933;SDS011;4012;48.896;9.192;2024-01-30T05:55:09;8.87;;;6.33;;
7933;SDS011;4012;48.896;9.192;2024-01-30T05:57:36;11.17;;;7.03;;
7933;SDS011;4012;48.896;9.192;2024-01-30T06:00:02;8.90;;;6.40;;
7933;SDS011;4012;48.896;9.192;2024-01-30T06:02:29;8.27;;;6.33;;
7933;SDS011;4012;48.896;9.192;2024-01-30T06:04:55;8.63;;;6.43;;
7933;SDS011;4012;48.896;9.192;2024-01-30T06:07:20;14.53;;;7.03;;
7933;SDS011;4012;48.896;9.192;2024-01-30T06:09:47;10.07;;;6.33;;
7933;SDS011;4012;48.896;9.192;2024-01-30T06:12:12;9.17;;;6.10;;
7933;SDS011;4012;48.896;9.192;2024-01-30T06:14:38;9.53;;;6.93;;
7933;SDS011;4012;48.896;9.192;2024-01-30T06:17:03;8.80;;;6.47;;
7933;SDS011;4012;48.896;9.192;2024-01-30T06:19:30;8.67;;;6.27;;
7933;SDS011;4012;48.896;9.192;2024-01-30T06:21:55;7.90;;;6.00;;
7933;SDS011;4012;48.896;9.192;2024-01-30T06:24:22;9.00;;;7.20;;
7933;SDS011;4012;48.896;9.192;2024-01-30T06:26:48;9.83;;;7.10;;
7933;SDS011;4012;48.896;9.192;2024-01-30T06:29:13;8.47;;;6.47;;
7933;SDS011;4012;48.896;9.192;2024-01-30T06:31:40;8.23;;;6.20;;
7933;SDS011;4012;48.896;9.192;2024-01-30T06:34:06;9.27;;;6.80;;
7933;SDS011;4012;48.896;9.192;2024-01-30T06:36:32;9.90;;;6.80;;
7933;SDS011;4012;48.896;9.192;2024-01-30T06:38:58;7.90;;;6.67;;
7933;SDS011;4012;48.896;9.192;2024-01-30T06:41:23;11.27;;;7.03;;
7933;SDS011;4012;48.896;9.192;2024-01-30T06:43:49;10.33;;;6.67;;
7933;SDS011;4012;48.896;9.192;2024-01-30T06:46:15;10.63;;;7.10;;
7933;SDS011;4012;48.896;9.192;2024-01-30T06:48:40;8.43;;;7.00;;
7933;SDS011;4012;48.896;9.192;2024-01-30T06:51:08;9.63;;;6.50;;
7933;SDS011;4012;48.896;9.192;2024-01-30T06:53:34;18.50;;;7.30;;
7933;SDS011;4012;48.896;9.192;2024-01-30T06:56:00;11.70;;;6.67;;
7933;SDS011;4012;48.896;9.192;2024-01-30T06:58:25;9.30;;;7.00;;
7933;SDS011;4012;48.896;9.192;2024-01-30T07:00:51;10.87;;;8.53;;
7933;SDS011;4012;48.896;9.192;2024-01-30T07:03:17;9.93;;;7.37;;
7933;SDS011;4012;48.896;9.192;2024-01-30T07:05:42;14.33;;;7.07;;
7933;SDS011;4012;48.896;9.192;2024-01-30T07:08:08;8.30;;;6.37;;
7933;SDS011;4012;48.896;9.192;2024-01-30T07:10:34;11.23;;;7.40;;
7933;SDS011;4012;48.896;9.192;2024-01-30T07:13:00;13.00;;;6.37;;
7933;SDS011;4012;48.896;9.192;2024-01-30T07:15:26;12.93;;;7.27;;
7933;SDS011;4012;48.896;9.192;2024-01-30T07:17:51;10.67;;;6.93;;
7933;SDS011;4012;48.896;9.192;2024-01-30T07:20:17;8.93;;;6.97;;
7933;SDS011;4012;48.896;9.192;2024-01-30T07:22:45;10.87;;;6.33;;
7933;SDS011;4012;48.896;9.192;2024-01-30T07:25:10;9.93;;;6.93;;
7933;SDS011;4012;48.896;9.192;2024-01-30T07:27:36;16.23;;;7.27;;
7933;SDS011;4012;48.896;9.192;2024-01-30T07:30:02;9.07;;;6.87;;
7933;SDS011;4012;48.896;9.192;2024-01-30T07:32:28;8.67;;;6.97;;
7933;SDS011;4012;48.896;9.192;2024-01-30T07:34:53;12.13;;;7.03;;
7933;SDS011;4012;48.896;9.192;2024-01-30T07:37:19;8.63;;;6.30;;
7933;SDS011;4012;48.896;9.192;2024-01-30T07:39:44;9.80;;;6.50;;
7933;SDS011;4012;48.896;9.192;2024-01-30T07:42:10;9.27;;;6.47;;
7933;SDS011;4012;48.896;9.192;2024-01-30T07:44:35;9.50;;;6.20;;
7933;SDS011;4012;48.896;9.192;2024-01-30T07:47:01;11.10;;;6.07;;
7933;SDS011;4012;48.896;9.192;2024-01-30T07:49:28;10.83;;;6.83;;
7933;SDS011;4012;48.896;9.192;2024-01-30T07:51:53;10.80;;;6.93;;
7933;SDS011;4012;48.896;9.192;2024-01-30T07:54:19;10.40;;;6.47;;
7933;SDS011;4012;48.896;9.192;2024-01-30T07:56:44;10.97;;;6.63;;
7933;SDS011;4012;48.896;9.192;2024-01-30T07:59:10;11.83;;;6.47;;
7933;SDS011;4012;48.896;9.192;2024-01-30T08:01:36;10.03;;;6.63;;
7933;SDS011;4012;48.896;9.192;2024-01-30T08:04:02;11.77;;;7.47;;
7933;SDS011;4012;48.896;9.192;2024-01-30T08:06:28;9.63;;;7.20;;
7933;SDS011;4012;48.896;9.192;2024-01-30T08:08:53;12.93;;;7.23;;
7933;SDS011;4012;48.896;9.192;2024-01-30T08:11:21;12.73;;;7.30;;
7933;SDS011;4012;48.896;9.192;2024-01-30T08:13:54;11.40;;;7.33;;
7933;SDS011;4012;48.896;9.192;2024-01-30T08:16:20;10.57;;;7.07;;
7933;SDS011;4012;48.896;9.192;2024-01-30T08:18:45;8.90;;;7.00;;
7933;SDS011;4012;48.896;9.192;2024-01-30T08:21:11;13.63;;;7.13;;
7933;SDS011;4012;48.896;9.192;2024-01-30T08:23:38;10.67;;;7.00;;
7933;SDS011;4012;48.896;9.192;2024-01-30T08:26:04;11.00;;;6.67;;
7933;SDS011;4012;48.896;9.192;2024-01-30T08:28:30;10.43;;;6.77;;
7933;SDS011;4012;48.896;9.192;2024-01-30T08:30:56;10.03;;;6.80;;
7933;SDS011;4012;48.896;9.192;2024-01-30T08:33:22;10.00;;;6.60;;
7933;SDS011;4012;48.896;9.192;2024-01-30T08:35:47;8.33;;;6.07;;
7933;SDS011;4012;48.896;9.192;2024-01-30T08:38:13;10.23;;;6.57;;
7933;SDS011;4012;48.896;9.192;2024-01-30T08:40:39;14.43;;;6.63;;
7933;SDS011;4012;48.896;9.192;2024-01-30T08:43:04;11.67;;;6.70;;
7933;SDS011;4012;48.896;9.192;2024-01-30T08:45:30;10.77;;;6.40;;
7933;SDS011;4012;48.896;9.192;2024-01-30T08:47:56;14.57;;;6.77;;
7933;SDS011;4012;48.896;9.192;2024-01-30T08:50:21;9.50;;;6.07;;
7933;SDS011;4012;48.896;9.192;2024-01-30T08:52:47;10.97;;;6.47;;
7933;SDS011;4012;48.896;9.192;2024-01-30T08:55:13;8.20;;;5.73;;
7933;SDS011;4012;48.896;9.192;2024-01-30T08:57:38;8.10;;;6.17;;
7933;SDS011;4012;48.896;9.192;2024-01-30T09:00:04;9.77;;;6.70;;
7933;SDS011;4012;48.896;9.192;2024-01-30T09:02:32;11.60;;;6.77;;
7933;SDS011;4012;48.896;9.192;2024-01-30T09:04:57;10.53;;;6.43;;
7933;SDS011;4012;48.896;9.192;2024-01-30T09:07:23;10.10;;;6.20;;
7933;SDS011;4012;48.896;9.192;2024-01-30T09:09:49;8.80;;;5.77;;
7933;SDS011;4012;48.896;9.192;2024-01-30T09:12:15;9.40;;;6.53;;
7933;SDS011;4012;48.896;9.192;2024-01-30T09:14:40;13.33;;;6.10;;
7933;SDS011;4012;48.896;9.192;2024-01-30T09:17:06;15.37;;;7.07;;
7933;SDS011;4012;48.896;9.192;2024-01-30T09:19:32;14.37;;;6.87;;
7933;SDS011;4012;48.896;9.192;2024-01-30T09:21:57;9.53;;;6.47;;
7933;SDS011;4012;48.896;9.192;2024-01-30T09:24:23;9.83;;;6.73;;
7933;SDS011;4012;48.896;9.192;2024-01-30T09:26:50;7.37;;;6.07;;
7933;SDS011;4012;48.896;9.192;2024-01-30T09:29:15;8.60;;;6.73;;
7933;SDS011;4012;48.896;9.192;2024-01-30T09:31:45;12.13;;;7.07;;
7933;SDS011;4012;48.896;9.192;2024-01-30T09:34:10;8.43;;;6.10;;
7933;SDS011;4012;48.896;9.192;2024-01-30T09:36:36;6.83;;;5.90;;
7933;SDS011;4012;48.896;9.192;2024-01-30T09:39:02;9.17;;;6.93;;
7933;SDS011;4012;48.896;9.192;2024-01-30T09:41:29;9.63;;;5.73;;
7933;SDS011;4012;48.896;9.192;2024-01-30T09:44:11;7.97;;;6.23;;
7933;SDS011;4012;48.896;9.192;2024-01-30T09:46:37;8.80;;;7.03;;
7933;SDS011;4012;48.896;9.192;2024-01-30T09:49:03;11.50;;;6.90;;
7933;SDS011;4012;48.896;9.192;2024-01-30T09:51:31;6.97;;;6.10;;
7933;SDS011;4012;48.896;9.192;2024-01-30T09:53:57;12.90;;;6.90;;
7933;SDS011;4012;48.896;9.192;2024-01-30T09:56:22;10.80;;;6.90;;
7933;SDS011;4012;48.896;9.192;2024-01-30T09:58:48;11.43;;;6.83;;
7933;SDS011;4012;48.896;9.192;2024-01-30T10:01:14;8.10;;;6.50;;
7933;SDS011;4012;48.896;9.192;2024-01-30T10:03:43;10.87;;;6.20;;
7933;SDS011;4012;48.896;9.192;2024-01-30T10:06:09;13.13;;;5.97;;
7933;SDS011;4012;48.896;9.192;2024-01-30T10:08:35;9.17;;;5.97;;
7933;SDS011;4012;48.896;9.192;2024-01-30T10:11:01;8.70;;;6.47;;
7933;SDS011;4012;48.896;9.192;2024-01-30T10:13:28;7.97;;;6.57;;
7933;SDS011;4012;48.896;9.192;2024-01-30T10:15:54;11.77;;;5.90;;
7933;SDS011;4012;48.896;9.192;2024-01-30T10:18:20;9.40;;;6.57;;
7933;SDS011;4012;48.896;9.192;2024-01-30T10:20:47;7.90;;;6.53;;
7933;SDS011;4012;48.896;9.192;2024-01-30T10:23:13;11.80;;;6.10;;
7933;SDS011;4012;48.896;9.192;2024-01-30T10:25:39;18.83;;;6.37;;
7933;SDS011;4012;48.896;9.192;2024-01-30T10:28:05;11.60;;;6.60;;
7933;SDS011;4012;48.896;9.192;2024-01-30T10:30:30;7.73;;;6.03;;
7933;SDS011;4012;48.896;9.192;2024-01-30T10:32:56;10.13;;;6.70;;
7933;SDS011;4012;48.896;9.192;2024-01-30T10:35:21;8.03;;;6.20;;
7933;SDS011;4012;48.896;9.192;2024-01-30T10:37:47;9.33;;;6.37;;
7933;SDS011;4012;48.896;9.192;2024-01-30T10:40:14;13.70;;;6.70;;
7933;SDS011;4012;48.896;9.192;2024-01-30T10:42:43;13.73;;;6.60;;
7933;SDS011;4012;48.896;9.192;2024-01-30T10:45:13;11.37;;;7.37;;
7933;SDS011;4012;48.896;9.192;2024-01-30T10:47:49;8.77;;;6.97;;
7933;SDS011;4012;48.896;9.192;2024-01-30T10:50:15;11.33;;;7.30;;
7933;SDS011;4012;48.896;9.192;2024-01-30T10:52:41;8.33;;;6.43;;
7933;SDS011;4012;48.896;9.192;2024-01-30T10:55:08;9.20;;;7.07;;
7933;SDS011;4012;48.896;9.192;2024-01-30T10:57:35;10.10;;;6.57;;
7933;SDS011;4012;48.896;9.192;2024-01-30T11:00:02;12.50;;;6.90;;
7933;SDS011;4012;48.896;9.192;2024-01-30T11:02:30;11.63;;;6.40;;
7933;SDS011;4012;48.896;9.192;2024-01-30T11:04:58;12.53;;;6.60;;
7933;SDS011;4012;48.896;9.192;2024-01-30T11:07:25;10.20;;;6.57;;
7933;SDS011;4012;48.896;9.192;2024-01-30T11:12:23;14.87;;;8.43;;
7933;SDS011;4012;48.896;9.192;2024-01-30T11:14:50;10.03;;;5.80;;
7933;SDS011;4012;48.896;9.192;2024-01-30T11:17:28;11.50;;;6.90;;
7933;SDS011;4012;48.896;9.192;2024-01-30T11:20:04;9.43;;;6.33;;
7933;SDS011;4012;48.896;9.192;2024-01-30T11:22:30;16.00;;;8.60;;
7933;SDS011;4012;48.896;9.192;2024-01-30T11:24:56;8.60;;;5.93;;
7933;SDS011;4012;48.896;9.192;2024-01-30T11:27:22;21.53;;;7.13;;
7933;SDS011;4012;48.896;9.192;2024-01-30T11:29:50;13.23;;;6.93;;
7933;SDS011;4012;48.896;9.192;2024-01-30T11:32:21;16.00;;;7.13;;
7933;SDS011;4012;48.896;9.192;2024-01-30T11:34:49;16.07;;;6.20;;
7933;SDS011;4012;48.896;9.192;2024-01-30T11:37:15;11.03;;;6.07;;
7933;SDS011;4012;48.896;9.192;2024-01-30T11:39:44;9.97;;;6.67;;
7933;SDS011;4012;48.896;9.192;2024-01-30T11:42:11;9.73;;;6.87;;
7933;SDS011;4012;48.896;9.192;2024-01-30T11:44:38;8.30;;;6.87;;
7933;SDS011;4012;48.896;9.192;2024-01-30T11:47:04;12.80;;;7.13;;
7933;SDS011;4012;48.896;9.192;2024-01-30T11:49:29;9.07;;;6.80;;
7933;SDS011;4012;48.896;9.192;2024-01-30T11:51:55;14.20;;;7.07;;
7933;SDS011;4012;48.896;9.192;2024-01-30T11:54:21;16.30;;;7.27;;
7933;SDS011;4012;48.896;9.192;2024-01-30T11:56:46;9.93;;;7.63;;
7933;SDS011;4012;48.896;9.192;2024-01-30T11:59:12;12.00;;;7.13;;
7933;SDS011;4012;48.896;9.192;2024-01-30T12:01:39;13.33;;;6.90;;
7933;SDS011;4012;48.896;9.192;2024-01-30T12:04:04;11.20;;;7.10;;
7933;SDS011;4012;48.896;9.192;2024-01-30T12:06:34;11.67;;;7.27;;
7933;SDS011;4012;48.896;9.192;2024-01-30T12:09:01;16.83;;;7.17;;
7933;SDS011;4012;48.896;9.192;2024-01-30T12:11:33;14.70;;;7.23;;
7933;SDS011;4012;48.896;9.192;2024-01-30T12:14:07;13.60;;;7.03;;
7933;SDS011;4012;48.896;9.192;2024-01-30T12:16:33;14.20;;;7.00;;
7933;SDS011;4012;48.896;9.192;2024-01-30T12:18:59;10.63;;;7.17;;
7933;SDS011;4012;48.896;9.192;2024-01-30T12:21:26;12.17;;;7.53;;
7933;SDS011;4012;48.896;9.192;2024-01-30T12:23:52;12.97;;;8.00;;
7933;SDS011;4012;48.896;9.192;2024-01-30T12:26:17;8.60;;;7.10;;
7933;SDS011;4012;48.896;9.192;2024-01-30T12:28:50;10.57;;;7.10;;
7933;SDS011;4012;48.896;9.192;2024-01-30T12:31:18;10.70;;;7.40;;
7933;SDS011;4012;48.896;9.192;2024-01-30T12:33:53;11.60;;;7.33;;
7933;SDS011;4012;48.896;9.192;2024-01-30T12:36:20;11.53;;;7.30;;
7933;SDS011;4012;48.896;9.192;2024-01-30T12:38:47;12.97;;;7.73;;
7933;SDS011;4012;48.896;9.192;2024-01-30T12:41:12;12.53;;;7.33;;
7933;SDS011;4012;48.896;9.192;2024-01-30T12:43:38;13.97;;;7.33;;
7933;SDS011;4012;48.896;9.192;2024-01-30T12:46:03;15.47;;;7.67;;
7933;SDS011;4012;48.896;9.192;2024-01-30T12:48:30;11.20;;;7.63;;
7933;SDS011;4012;48.896;9.192;2024-01-30T12:50:56;15.03;;;8.70;;
7933;SDS011;4012;48.896;9.192;2024-01-30T12:53:22;10.00;;;7.43;;
7933;SDS011;4012;48.896;9.192;2024-01-30T12:55:47;11.47;;;7.37;;
7933;SDS011;4012;48.896;9.192;2024-01-30T12:58:14;12.97;;;7.80;;
7933;SDS011;4012;48.896;9.192;2024-01-30T13:00:40;13.23;;;7.73;;
7933;SDS011;4012;48.896;9.192;2024-01-30T13:03:08;17.10;;;7.93;;
7933;SDS011;4012;48.896;9.192;2024-01-30T13:05:34;15.93;;;7.67;;
7933;SDS011;4012;48.896;9.192;2024-01-30T13:08:00;13.10;;;8.20;;
7933;SDS011;4012;48.896;9.192;2024-01-30T13:10:26;13.43;;;8.20;;
7933;SDS011;4012;48.896;9.192;2024-01-30T13:12:52;15.63;;;8.07;;
7933;SDS011;4012;48.896;9.192;2024-01-30T13:15:18;11.93;;;8.47;;
7933;SDS011;4012;48.896;9.192;2024-01-30T13:17:44;12.27;;;8.20;;
7933;SDS011;4012;48.896;9.192;2024-01-30T13:20:12;15.50;;;8.70;;
7933;SDS011;4012;48.896;9.192;2024-01-30T13:22:41;13.40;;;8.60;;
7933;SDS011;4012;48.896;9.192;2024-01-30T13:25:08;10.03;;;7.97;;
7933;SDS011;4012;48.896;9.192;2024-01-30T13:27:34;11.07;;;7.93;;
7933;SDS011;4012;48.896;9.192;2024-01-30T13:29:59;13.20;;;7.60;;
7933;SDS011;4012;48.896;9.192;2024-01-30T13:32:28;11.30;;;8.00;;
7933;SDS011;4012;48.896;9.192;2024-01-30T13:34:54;15.20;;;8.50;;
7933;SDS011;4012;48.896;9.192;2024-01-30T13:37:20;17.87;;;7.63;;
7933;SDS011;4012;48.896;9.192;2024-01-30T13:39:46;15.00;;;7.57;;
7933;SDS011;4012;48.896;9.192;2024-01-30T13:42:12;16.87;;;8.23;;
7933;SDS011;4012;48.896;9.192;2024-01-30T13:44:37;14.30;;;8.10;;
7933;SDS011;4012;48.896;9.192;2024-01-30T13:47:03;13.23;;;7.93;;
7933;SDS011;4012;48.896;9.192;2024-01-30T13:49:29;12.30;;;8.17;;
7933;SDS011;4012;48.896;9.192;2024-01-30T13:51:54;21.97;;;8.23;;
7933;SDS011;4012;48.896;9.192;2024-01-30T13:54:20;13.77;;;8.50;;
7933;SDS011;4012;48.896;9.192;2024-01-30T13:56:45;13.67;;;7.73;;
7933;SDS011;4012;48.896;9.192;2024-01-30T13:59:11;20.37;;;8.70;;
7933;SDS011;4012;48.896;9.192;2024-01-30T14:01:37;12.97;;;7.80;;
7933;SDS011;4012;48.896;9.192;2024-01-30T14:04:02;12.33;;;8.27;;
7933;SDS011;4012;48.896;9.192;2024-01-30T14:06:28;17.33;;;8.40;;
7933;SDS011;4012;48.896;9.192;2024-01-30T14:08:54;16.83;;;7.97;;
7933;SDS011;4012;48.896;9.192;2024-01-30T14:11:19;18.07;;;8.33;;
7933;SDS011;4012;48.896;9.192;2024-01-30T14:13:45;13.20;;;8.30;;
7933;SDS011;4012;48.896;9.192;2024-01-30T14:16:10;21.63;;;8.83;;
7933;SDS011;4012;48.896;9.192;2024-01-30T14:18:36;11.87;;;7.63;;
7933;SDS011;4012;48.896;9.192;2024-01-30T14:21:02;15.33;;;7.97;;
7933;SDS011;4012;48.896;9.192;2024-01-30T14:23:27;14.90;;;8.67;;
7933;SDS011;4012;48.896;9.192;2024-01-30T14:25:53;17.07;;;8.23;;
7933;SDS011;4012;48.896;9.192;2024-01-30T14:28:19;15.37;;;8.53;;
7933;SDS011;4012;48.896;9.192;2024-01-30T14:30:44;15.83;;;8.53;;
7933;SDS011;4012;48.896;9.192;2024-01-30T14:33:10;16.87;;;9.43;;
7933;SDS011;4012;48.896;9.192;2024-01-30T14:35:35;15.17;;;9.37;;
7933;SDS011;4012;48.896;9.192;2024-01-30T14:38:01;21.63;;;9.07;;
7933;SDS011;4012;48.896;9.192;2024-01-30T14:40:29;12.10;;;8.70;;
7933;SDS011;4012;48.896;9.192;2024-01-30T14:42:55;11.70;;;9.10;;
7933;SDS011;4012;48.896;9.192;2024-01-30T14:45:20;17.60;;;9.47;;
7933;SDS011;4012;48.896;9.192;2024-01-30T14:47:47;12.40;;;8.93;;
7933;SDS011;4012;48.896;9.192;2024-01-30T14:50:12;17.37;;;8.90;;
7933;SDS011;4012;48.896;9.192;2024-01-30T14:52:38;14.07;;;9.17;;
7933;SDS011;4012;48.896;9.192;2024-01-30T14:55:05;13.63;;;8.67;;
7933;SDS011;4012;48.896;9.192;2024-01-30T14:57:31;10.70;;;8.73;;
7933;SDS011;4012;48.896;9.192;2024-01-30T14:59:56;16.00;;;8.70;;
7933;SDS011;4012;48.896;9.192;2024-01-30T15:02:22;11.27;;;7.50;;